Time;durP1;ratioP1;P1;durP2;ratioP2;P2;SDS_P1;SDS_P2;PMS_P1;PMS_P2;Temp;Humidity;BMP_temperature;BMP_pressure;BME280_temperature;BME280_humidity;BME280_pressure;Samples;Min_cycle;Max_cycle;Signal;HPM_P1;HPM_P2
2022/04/16 00:00:22;;;;;;;5.63;2.45;;;;;;;;;;5051442;28;20099;-82
2022/04/16 00:02:50;;;;;;;3.88;2.13;;;;;;;;;;5050964;28;20128;-83
2022/04/16 00:05:20;;;;;;;3.55;2.20;;;;;;;;;;5050675;28;20484;-82
2022/04/16 00:08:06;;;;;;;4.50;2.30;;;;;;;;;;5050180;28;20114;-82
2022/04/16 00:10:35;;;;;;;4.50;2.15;;;;;;;;;;5030034;28;20293;-82
2022/04/16 00:13:04;;;;;;;4.88;2.20;;;;;;;;;;5028887;28;20049;-82
2022/04/16 00:15:32;;;;;;;3.50;2.15;;;;;;;;;;5029719;28;20370;-83
2022/04/16 00:18:00;;;;;;;3.63;2.13;;;;;;;;;;5028944;28;20050;-82
2022/04/16 00:20:31;;;;;;;3.80;2.20;;;;;;;;;;5028927;28;20056;-82
2022/04/16 00:23:00;;;;;;;4.63;2.08;;;;;;;;;;5029205;28;20128;-82
2022/04/16 00:25:34;;;;;;;3.45;2.10;;;;;;;;;;5031592;28;20140;-82
2022/04/16 00:28:02;;;;;;;5.97;2.35;;;;;;;;;;5030763;28;20128;-82
2022/04/16 00:30:35;;;;;;;3.97;1.95;;;;;;;;;;5031059;28;20495;-82
2022/04/16 00:33:03;;;;;;;4.53;1.98;;;;;;;;;;5031174;28;20080;-83
2022/04/16 00:35:32;;;;;;;4.00;2.20;;;;;;;;;;5034163;28;20346;-83
2022/04/16 00:38:01;;;;;;;3.63;2.10;;;;;;;;;;5050277;28;20140;-82
2022/04/16 00:40:30;;;;;;;3.63;2.00;;;;;;;;;;5051214;28;20461;-82
2022/04/16 00:42:58;;;;;;;4.28;2.25;;;;;;;;;;5044366;28;20084;-82
2022/04/16 00:45:27;;;;;;;2.90;1.63;;;;;;;;;;5030971;28;20382;-82
2022/04/16 00:47:55;;;;;;;3.15;1.85;;;;;;;;;;5030663;28;20048;-82
2022/04/16 00:50:23;;;;;;;3.35;2.03;;;;;;;;;;5031166;28;20136;-82
2022/04/16 00:52:52;;;;;;;4.03;2.20;;;;;;;;;;5031065;28;20490;-82
2022/04/16 00:55:22;;;;;;;3.72;1.85;;;;;;;;;;5049377;28;20076;-83
2022/04/16 00:57:51;;;;;;;2.38;2.13;;;;;;;;;;5050986;28;20045;-83
2022/04/16 01:00:19;;;;;;;3.20;2.03;;;;;;;;;;5041809;28;20085;-82
2022/04/16 01:02:49;;;;;;;3.03;1.85;;;;;;;;;;5031320;28;20050;-82
2022/04/16 01:05:19;;;;;;;3.83;1.80;;;;;;;;;;5034652;28;20164;-82
2022/04/16 01:07:53;;;;;;;3.65;2.03;;;;;;;;;;5035926;28;20053;-82
2022/04/16 01:10:26;;;;;;;3.95;2.25;;;;;;;;;;5036344;28;20050;-82
2022/04/16 01:12:54;;;;;;;7.00;2.30;;;;;;;;;;5036202;28;20041;-82
2022/04/16 01:15:23;;;;;;;3.75;2.00;;;;;;;;;;5036561;28;20133;-82
2022/04/16 01:17:54;;;;;;;4.97;2.45;;;;;;;;;;5049048;28;20468;-82
2022/04/16 01:20:22;;;;;;;3.63;2.20;;;;;;;;;;5055374;28;20416;-82
2022/04/16 01:22:54;;;;;;;4.05;2.28;;;;;;;;;;5041454;28;20084;-82
2022/04/16 01:25:24;;;;;;;6.65;2.30;;;;;;;;;;5060770;28;20119;-82
2022/04/16 01:27:52;;;;;;;3.75;2.22;;;;;;;;;;5061035;28;20045;-82
2022/04/16 01:30:22;;;;;;;4.53;2.25;;;;;;;;;;5060930;28;20045;-82
2022/04/16 01:32:50;;;;;;;4.85;2.10;;;;;;;;;;5060894;28;20049;-82
2022/04/16 01:35:19;;;;;;;5.03;2.40;;;;;;;;;;5044597;28;20409;-82
2022/04/16 01:37:47;;;;;;;3.55;1.98;;;;;;;;;;5060460;28;20132;-82
2022/04/16 01:40:17;;;;;;;3.15;2.00;;;;;;;;;;5060474;28;20104;-82
2022/04/16 01:42:46;;;;;;;3.88;2.33;;;;;;;;;;5060587;28;20171;-82
2022/04/16 01:45:17;;;;;;;3.67;2.00;;;;;;;;;;5061396;28;20096;-82
2022/04/16 01:47:46;;;;;;;3.58;2.03;;;;;;;;;;5061477;28;20048;-82
2022/04/16 01:50:15;;;;;;;2.72;1.63;;;;;;;;;;5059735;28;20456;-82
2022/04/16 01:52:43;;;;;;;6.55;2.28;;;;;;;;;;5040685;28;20042;-82
2022/04/16 01:55:12;;;;;;;3.25;1.92;;;;;;;;;;5058049;28;20076;-82
2022/04/16 01:57:42;;;;;;;3.47;2.10;;;;;;;;;;5061074;28;20045;-82
2022/04/16 02:00:13;;;;;;;4.10;2.30;;;;;;;;;;5058964;28;20041;-82
2022/04/16 02:02:41;;;;;;;6.28;2.17;;;;;;;;;;5059090;28;20080;-82
2022/04/16 02:05:10;;;;;;;3.97;2.08;;;;;;;;;;5058924;28;20076;-82
2022/04/16 02:07:39;;;;;;;4.95;2.42;;;;;;;;;;5055113;28;20049;-82
2022/04/16 02:10:08;;;;;;;4.13;2.00;;;;;;;;;;5038425;28;20056;-82
2022/04/16 02:12:38;;;;;;;4.10;2.40;;;;;;;;;;5039605;28;20128;-82
2022/04/16 02:15:08;;;;;;;3.42;1.85;;;;;;;;;;5039837;28;20136;-82
2022/04/16 02:17:36;;;;;;;3.55;2.20;;;;;;;;;;5039934;28;20108;-82
2022/04/16 02:20:06;;;;;;;3.75;1.95;;;;;;;;;;5039674;28;20091;-82
2022/04/16 02:22:44;;;;;;;2.97;1.90;;;;;;;;;;5040138;28;20077;-82
2022/04/16 02:25:13;;;;;;;4.25;2.47;;;;;;;;;;5040253;28;20049;-82
2022/04/16 02:27:41;;;;;;;3.17;1.92;;;;;;;;;;5039773;28;20508;-82
2022/04/16 02:30:13;;;;;;;4.93;2.20;;;;;;;;;;5039313;28;20053;-82
2022/04/16 02:32:43;;;;;;;3.92;2.20;;;;;;;;;;5039581;28;20045;-82
2022/04/16 02:35:13;;;;;;;3.75;2.20;;;;;;;;;;5040079;28;20085;-82
2022/04/16 02:37:42;;;;;;;3.28;2.30;;;;;;;;;;5059513;28;20140;-82
2022/04/16 02:40:11;;;;;;;4.80;2.45;;;;;;;;;;5059523;28;20308;-82
2022/04/16 02:42:40;;;;;;;3.85;2.25;;;;;;;;;;5047305;28;20058;-82
2022/04/16 02:47:57;;;;;;;5.13;2.40;;;;;;;;;;5040029;28;20049;-82
2022/04/16 02:50:27;;;;;;;5.15;2.67;;;;;;;;;;5039833;28;20088;-82
2022/04/16 02:52:55;;;;;;;8.98;2.67;;;;;;;;;;5040357;28;20050;-82
2022/04/16 02:55:24;;;;;;;6.72;2.65;;;;;;;;;;5057451;28;20045;-83
2022/04/16 02:57:52;;;;;;;6.55;2.47;;;;;;;;;;5057486;28;20088;-82
2022/04/16 03:00:21;;;;;;;4.15;2.55;;;;;;;;;;5040451;28;20073;-82
2022/04/16 03:02:49;;;;;;;6.22;2.67;;;;;;;;;;5038237;28;20053;-82
2022/04/16 03:05:19;;;;;;;5.88;2.60;;;;;;;;;;5053337;28;20052;-82
2022/04/16 03:07:47;;;;;;;5.55;2.67;;;;;;;;;;5057156;28;20147;-82
2022/04/16 03:10:16;;;;;;;3.85;2.28;;;;;;;;;;5058633;28;20139;-82
2022/04/16 03:12:46;;;;;;;3.92;2.13;;;;;;;;;;5058711;28;20551;-82
2022/04/16 03:18:08;;;;;;;3.88;2.40;;;;;;;;;;4982023;28;20073;-82
2022/04/16 03:20:38;;;;;;;4.97;2.58;;;;;;;;;;5038588;28;20057;-82
2022/04/16 03:23:07;;;;;;;5.40;2.72;;;;;;;;;;5038806;28;20049;-82
2022/04/16 03:25:35;;;;;;;6.22;3.30;;;;;;;;;;5038530;28;20072;-82
2022/04/16 03:28:03;;;;;;;4.88;2.67;;;;;;;;;;5035018;28;20462;-82
2022/04/16 03:30:32;;;;;;;6.90;3.15;;;;;;;;;;5036887;28;20113;-82
2022/04/16 03:33:01;;;;;;;4.65;2.90;;;;;;;;;;5038473;28;20161;-82
2022/04/16 03:35:29;;;;;;;7.47;2.97;;;;;;;;;;5041825;28;20108;-82
2022/04/16 03:37:59;;;;;;;6.07;3.30;;;;;;;;;;5058461;28;20045;-82
2022/04/16 03:40:27;;;;;;;7.65;3.20;;;;;;;;;;5058571;28;20135;-82
2022/04/16 03:42:58;;;;;;;6.97;3.53;;;;;;;;;;5041994;28;20084;-82
2022/04/16 03:45:28;;;;;;;7.50;3.20;;;;;;;;;;5039348;28;20385;-82
2022/04/16 03:47:56;;;;;;;4.82;2.85;;;;;;;;;;5037832;28;20052;-82
2022/04/16 03:50:25;;;;;;;6.70;3.30;;;;;;;;;;5038367;28;20053;-82
2022/04/16 03:52:55;;;;;;;8.25;3.08;;;;;;;;;;5037424;28;20478;-82
2022/04/16 04:00:58;;;;;;;8.25;2.45;;;;;;;;;;5056706;28;20053;-82
2022/04/16 04:03:27;;;;;;;6.10;2.60;;;;;;;;;;5057183;28;20163;-82
2022/04/16 04:05:57;;;;;;;4.88;2.72;;;;;;;;;;5057438;28;20058;-82
2022/04/16 04:08:25;;;;;;;5.93;2.60;;;;;;;;;;5038707;28;20050;-82
2022/04/16 04:10:55;;;;;;;5.10;2.72;;;;;;;;;;5045929;28;20044;-82
2022/04/16 04:13:24;;;;;;;5.30;2.92;;;;;;;;;;5057868;28;20081;-82
2022/04/16 04:15:53;;;;;;;5.03;2.90;;;;;;;;;;5058232;28;20111;-82
2022/04/16 04:18:24;;;;;;;7.22;3.13;;;;;;;;;;5056766;28;20056;-82
2022/04/16 04:20:54;;;;;;;6.45;2.78;;;;;;;;;;5057234;28;20461;-82
2022/04/16 04:23:23;;;;;;;5.60;2.90;;;;;;;;;;5055527;28;20198;-82
2022/04/16 04:25:51;;;;;;;7.03;3.03;;;;;;;;;;5037592;28;20064;-82
2022/04/16 04:28:21;;;;;;;5.50;3.03;;;;;;;;;;5037201;28;20145;-82
2022/04/16 04:30:50;;;;;;;6.93;3.10;;;;;;;;;;5037313;28;20089;-82
2022/04/16 04:33:18;;;;;;;5.50;2.53;;;;;;;;;;5037699;28;20068;-82
2022/04/16 04:35:46;;;;;;;6.22;2.78;;;;;;;;;;5043531;28;20427;-82
2022/04/16 04:38:15;;;;;;;8.00;3.28;;;;;;;;;;5057277;28;20080;-82
2022/04/16 04:40:43;;;;;;;5.00;2.72;;;;;;;;;;5053538;28;20088;-82
2022/04/16 04:43:11;;;;;;;8.68;3.45;;;;;;;;;;5056478;28;20057;-82
2022/04/16 04:45:41;;;;;;;6.85;3.75;;;;;;;;;;5055852;28;20053;-82
2022/04/16 04:48:09;;;;;;;5.60;2.97;;;;;;;;;;5052335;28;20124;-82
2022/04/16 04:50:37;;;;;;;5.57;2.70;;;;;;;;;;5054984;28;20052;-82
2022/04/16 04:53:06;;;;;;;8.10;3.33;;;;;;;;;;5055970;28;20084;-82
2022/04/16 04:55:34;;;;;;;10.10;3.13;;;;;;;;;;5055782;28;20132;-82
2022/04/16 04:58:02;;;;;;;6.40;3.25;;;;;;;;;;5048338;28;20125;-82
2022/04/16 05:00:31;;;;;;;6.18;3.00;;;;;;;;;;5040775;28;20088;-82
2022/04/16 05:03:00;;;;;;;5.90;2.80;;;;;;;;;;5040900;28;20525;-82
2022/04/16 05:05:29;;;;;;;5.50;2.65;;;;;;;;;;5049401;28;20049;-82
2022/04/16 05:07:57;;;;;;;5.30;2.90;;;;;;;;;;5060879;28;20088;-82
2022/04/16 05:10:26;;;;;;;7.05;3.22;;;;;;;;;;5056213;28;20049;-82
2022/04/16 05:12:57;;;;;;;6.78;3.30;;;;;;;;;;5041171;28;20084;-82
2022/04/16 05:15:26;;;;;;;7.20;3.13;;;;;;;;;;5042439;28;20038;-82
2022/04/16 05:17:54;;;;;;;7.07;3.50;;;;;;;;;;5042134;28;20113;-82
2022/04/16 05:20:24;;;;;;;10.68;3.22;;;;;;;;;;5042083;28;20132;-82
2022/04/16 05:22:52;;;;;;;8.07;4.10;;;;;;;;;;5042533;28;20105;-82
2022/04/16 05:25:20;;;;;;;6.07;2.92;;;;;;;;;;5042512;28;20132;-82
2022/04/16 05:27:48;;;;;;;6.65;3.13;;;;;;;;;;5042264;28;20470;-82
2022/04/16 05:30:25;;;;;;;7.18;3.63;;;;;;;;;;5044410;28;20420;-81
2022/04/16 05:32:56;;;;;;;7.18;3.22;;;;;;;;;;5043064;28;20045;-81
2022/04/16 05:35:26;;;;;;;7.90;3.55;;;;;;;;;;5044192;28;20084;-81
2022/04/16 05:37:54;;;;;;;6.25;2.88;;;;;;;;;;5070160;28;20052;-82
2022/04/16 05:40:27;;;;;;;7.35;3.05;;;;;;;;;;5063790;28;20056;-82
2022/04/16 05:42:55;;;;;;;6.75;3.58;;;;;;;;;;5060342;28;20083;-82
2022/04/16 05:45:23;;;;;;;7.40;3.83;;;;;;;;;;5060154;28;20075;-83
2022/04/16 05:47:51;;;;;;;8.52;3.67;;;;;;;;;;5059868;28;20127;-82
2022/04/16 05:50:20;;;;;;;7.15;3.53;;;;;;;;;;5042775;28;20124;-82
2022/04/16 05:52:52;;;;;;;8.55;3.45;;;;;;;;;;5039952;28;20143;-82
2022/04/16 05:55:20;;;;;;;5.88;3.30;;;;;;;;;;5059037;28;20052;-82
2022/04/16 05:57:48;;;;;;;7.55;3.45;;;;;;;;;;5059714;28;20081;-82
2022/04/16 06:00:17;;;;;;;7.80;3.30;;;;;;;;;;5060845;28;20471;-82
2022/04/16 06:02:46;;;;;;;8.23;4.38;;;;;;;;;;5060490;28;20072;-82
2022/04/16 06:05:14;;;;;;;10.07;4.05;;;;;;;;;;5060007;28;20053;-82
2022/04/16 06:07:42;;;;;;;7.13;3.80;;;;;;;;;;5040601;28;20064;-82
2022/04/16 06:10:12;;;;;;;5.78;3.53;;;;;;;;;;5038908;28;20105;-82
2022/04/16 06:12:41;;;;;;;7.10;3.30;;;;;;;;;;5040120;28;20504;-82
2022/04/16 06:15:10;;;;;;;5.97;3.38;;;;;;;;;;5040733;28;20101;-82
2022/04/16 06:17:39;;;;;;;6.95;3.47;;;;;;;;;;5041022;28;20108;-82
2022/04/16 06:20:08;;;;;;;7.15;3.45;;;;;;;;;;5040273;28;20132;-82
2022/04/16 06:22:36;;;;;;;7.00;3.60;;;;;;;;;;5040699;28;20045;-82
2022/04/16 06:25:05;;;;;;;9.27;4.40;;;;;;;;;;5043542;28;20045;-82
2022/04/16 06:27:38;;;;;;;6.70;3.80;;;;;;;;;;5062880;28;20072;-82
2022/04/16 06:30:08;;;;;;;8.48;3.60;;;;;;;;;;5062984;28;20075;-82
2022/04/16 06:32:36;;;;;;;7.38;3.28;;;;;;;;;;5061472;28;20045;-82
2022/04/16 06:35:05;;;;;;;6.53;3.70;;;;;;;;;;5061076;28;20084;-82
2022/04/16 06:37:34;;;;;;;9.55;3.53;;;;;;;;;;5040031;28;20128;-82
2022/04/16 06:40:02;;;;;;;9.20;4.15;;;;;;;;;;5039272;28;20081;-82
2022/04/16 06:42:31;;;;;;;10.35;3.72;;;;;;;;;;5052530;28;20052;-82
2022/04/16 06:45:00;;;;;;;10.18;3.85;;;;;;;;;;5055554;28;20049;-82
2022/04/16 06:47:29;;;;;;;8.50;3.72;;;;;;;;;;5054205;28;20090;-82
2022/04/16 06:49:57;;;;;;;8.18;4.03;;;;;;;;;;5053059;28;20136;-82
2022/04/16 06:52:26;;;;;;;6.53;3.65;;;;;;;;;;5053724;28;20107;-82
2022/04/16 06:54:54;;;;;;;9.02;3.97;;;;;;;;;;5053608;28;20212;-82
2022/04/16 06:57:22;;;;;;;6.97;3.95;;;;;;;;;;5043643;28;20053;-82
2022/04/16 06:59:50;;;;;;;6.47;3.67;;;;;;;;;;5032251;28;20056;-82
2022/04/16 07:02:20;;;;;;;7.90;4.28;;;;;;;;;;5033305;28;20456;-82
2022/04/16 07:04:49;;;;;;;9.40;3.80;;;;;;;;;;5033633;28;20056;-81
2022/04/16 07:07:17;;;;;;;7.82;3.63;;;;;;;;;;5041962;28;20045;-82
2022/04/16 07:09:45;;;;;;;7.70;3.90;;;;;;;;;;5052223;28;20131;-82
2022/04/16 07:12:14;;;;;;;8.38;4.13;;;;;;;;;;5032642;28;20079;-82
2022/04/16 07:14:42;;;;;;;8.88;3.85;;;;;;;;;;5032853;28;20053;-82
2022/04/16 07:17:10;;;;;;;9.00;4.03;;;;;;;;;;5032752;28;20087;-82
2022/04/16 07:19:40;;;;;;;8.18;4.00;;;;;;;;;;5031956;28;20085;-82
2022/04/16 07:22:08;;;;;;;7.80;4.18;;;;;;;;;;5032320;28;20450;-82
2022/04/16 07:24:38;;;;;;;8.23;4.13;;;;;;;;;;5032128;28;20065;-82
2022/04/16 07:27:06;;;;;;;7.22;3.58;;;;;;;;;;5032320;28;20138;-82
2022/04/16 07:29:35;;;;;;;7.93;3.65;;;;;;;;;;5031218;28;20493;-82
2022/04/16 07:32:03;;;;;;;6.28;3.47;;;;;;;;;;5039122;28;20548;-82
2022/04/16 07:34:32;;;;;;;6.05;3.03;;;;;;;;;;5051482;28;20135;-82
2022/04/16 07:37:01;;;;;;;8.02;3.75;;;;;;;;;;5052204;28;20099;-81
2022/04/16 07:39:30;;;;;;;8.45;4.38;;;;;;;;;;5051199;28;20057;-82
2022/04/16 07:41:59;;;;;;;8.90;4.28;;;;;;;;;;5051755;28;20094;-82
2022/04/16 07:44:27;;;;;;;7.40;4.25;;;;;;;;;;5051779;28;20092;-82
2022/04/16 07:46:55;;;;;;;8.52;3.80;;;;;;;;;;5052465;28;20072;-82
2022/04/16 07:49:24;;;;;;;6.82;3.38;;;;;;;;;;5049093;28;20107;-82
2022/04/16 07:51:52;;;;;;;7.72;3.85;;;;;;;;;;5051929;28;20665;-82
2022/04/16 07:54:22;;;;;;;6.88;3.53;;;;;;;;;;5052342;28;20479;-82
2022/04/16 07:56:50;;;;;;;5.85;3.72;;;;;;;;;;5051955;28;20127;-82
2022/04/16 07:59:19;;;;;;;10.63;4.18;;;;;;;;;;5050686;28;20049;-82
2022/04/16 08:01:47;;;;;;;8.82;4.10;;;;;;;;;;5051844;28;20077;-82
2022/04/16 08:04:15;;;;;;;7.75;3.60;;;;;;;;;;5051474;28;20416;-82
2022/04/16 08:06:44;;;;;;;8.38;3.70;;;;;;;;;;5032229;28;20128;-82
2022/04/16 08:09:12;;;;;;;6.72;4.10;;;;;;;;;;5030794;28;20474;-82
2022/04/16 08:11:42;;;;;;;6.53;3.60;;;;;;;;;;5031493;28;20133;-82
2022/04/16 08:14:10;;;;;;;8.30;4.30;;;;;;;;;;5031757;28;20088;-82
2022/04/16 08:16:38;;;;;;;8.15;4.07;;;;;;;;;;5031420;28;20413;-82
2022/04/16 08:19:07;;;;;;;7.03;4.03;;;;;;;;;;5030655;28;20060;-82
2022/04/16 08:21:35;;;;;;;7.07;3.88;;;;;;;;;;5031129;28;20551;-82
2022/04/16 08:24:22;;;;;;;8.88;4.00;;;;;;;;;;5031344;28;20109;-82
2022/04/16 08:26:52;;;;;;;8.00;4.28;;;;;;;;;;5031849;28;20056;-81
2022/04/16 08:29:21;;;;;;;8.50;4.70;;;;;;;;;;5030706;28;20053;-82
2022/04/16 08:31:50;;;;;;;18.10;5.15;;;;;;;;;;5031788;28;20103;-82
2022/04/16 08:34:38;;;;;;;6.30;3.65;;;;;;;;;;5030591;28;20049;-82
2022/04/16 08:37:06;;;;;;;7.15;3.85;;;;;;;;;;5048151;28;20338;-82
2022/04/16 08:39:36;;;;;;;6.57;3.70;;;;;;;;;;5039106;28;20076;-82
2022/04/16 08:42:06;;;;;;;6.40;3.83;;;;;;;;;;5040528;28;20135;-82
2022/04/16 08:44:35;;;;;;;7.60;3.67;;;;;;;;;;5050889;28;20061;-82
2022/04/16 08:47:03;;;;;;;5.75;3.45;;;;;;;;;;5050722;28;20087;-82
2022/04/16 08:49:32;;;;;;;7.03;3.88;;;;;;;;;;5050244;28;20127;-82
2022/04/16 08:52:01;;;;;;;5.78;3.75;;;;;;;;;;5050792;28;20519;-82
2022/04/16 08:54:30;;;;;;;7.53;3.90;;;;;;;;;;5051217;28;20052;-82
2022/04/16 08:56:58;;;;;;;5.07;3.35;;;;;;;;;;5036246;28;20045;-82
2022/04/16 08:59:28;;;;;;;6.07;3.45;;;;;;;;;;5029919;28;20059;-82
2022/04/16 09:01:56;;;;;;;7.80;4.03;;;;;;;;;;5030599;28;20045;-82
2022/04/16 09:04:25;;;;;;;5.50;3.35;;;;;;;;;;5030022;28;20523;-82
2022/04/16 09:06:57;;;;;;;7.55;3.70;;;;;;;;;;5030699;28;20093;-83
2022/04/16 09:09:25;;;;;;;5.82;2.95;;;;;;;;;;5029947;28;20058;-83
2022/04/16 09:11:54;;;;;;;5.53;3.40;;;;;;;;;;5030792;28;20516;-83
2022/04/16 09:14:33;;;;;;;5.28;3.35;;;;;;;;;;5048472;28;20053;-83
2022/04/16 09:17:03;;;;;;;6.97;2.90;;;;;;;;;;5049820;28;20053;-83
2022/04/16 09:19:31;;;;;;;7.22;3.60;;;;;;;;;;5050014;28;20136;-83
2022/04/16 09:21:59;;;;;;;6.60;3.72;;;;;;;;;;5050482;28;20079;-83
2022/04/16 09:24:28;;;;;;;5.75;3.40;;;;;;;;;;5050295;28;20477;-83
2022/04/16 09:26:56;;;;;;;7.38;2.95;;;;;;;;;;5049873;28;20540;-83
2022/04/16 09:29:25;;;;;;;5.00;2.97;;;;;;;;;;5049008;28;20045;-83
2022/04/16 09:31:54;;;;;;;4.88;2.75;;;;;;;;;;5050082;28;20485;-83
2022/04/16 09:34:24;;;;;;;5.85;3.67;;;;;;;;;;5050217;28;20603;-83
2022/04/16 09:36:54;;;;;;;4.80;2.88;;;;;;;;;;5050035;28;20174;-83
2022/04/16 09:39:23;;;;;;;8.45;3.42;;;;;;;;;;5049514;28;20049;-83
2022/04/16 09:41:53;;;;;;;4.93;2.90;;;;;;;;;;5050109;28;20040;-83
2022/04/16 09:44:22;;;;;;;5.93;3.53;;;;;;;;;;5050893;28;20125;-83
2022/04/16 09:46:55;;;;;;;4.13;2.97;;;;;;;;;;5053534;28;20071;-82
2022/04/16 09:49:25;;;;;;;5.40;3.33;;;;;;;;;;5053214;28;20060;-82
2022/04/16 09:51:53;;;;;;;6.20;3.28;;;;;;;;;;5053666;28;20132;-82
2022/04/16 09:54:22;;;;;;;4.70;2.88;;;;;;;;;;5054067;28;20076;-82
2022/04/16 09:56:50;;;;;;;5.18;3.10;;;;;;;;;;5053852;28;20128;-82
2022/04/16 09:59:19;;;;;;;5.40;3.20;;;;;;;;;;5052958;28;20124;-82
2022/04/16 10:01:50;;;;;;;6.28;3.20;;;;;;;;;;5053188;28;20084;-82
2022/04/16 10:04:19;;;;;;;5.80;3.15;;;;;;;;;;5044277;28;20081;-82
2022/04/16 10:06:51;;;;;;;6.97;3.15;;;;;;;;;;5034845;28;20131;-82
2022/04/16 10:09:22;;;;;;;4.28;2.78;;;;;;;;;;5052439;28;20385;-82
2022/04/16 10:14:43;;;;;;;5.40;2.95;;;;;;;;;;5053703;28;20064;-82
2022/04/16 10:17:25;;;;;;;4.75;3.00;;;;;;;;;;5053495;28;20048;-83
2022/04/16 10:19:55;;;;;;;6.45;2.80;;;;;;;;;;5053055;28;20060;-82
2022/04/16 10:22:25;;;;;;;3.80;2.40;;;;;;;;;;5035889;28;20080;-82
2022/04/16 10:24:57;;;;;;;6.15;3.17;;;;;;;;;;5034226;28;20088;-82
2022/04/16 10:27:27;;;;;;;6.40;3.20;;;;;;;;;;5033889;28;20088;-82
2022/04/16 10:29:56;;;;;;;6.38;3.65;;;;;;;;;;5032859;28;20361;-82
2022/04/16 10:32:24;;;;;;;5.55;3.50;;;;;;;;;;5034095;28;20531;-82
2022/04/16 10:35:02;;;;;;;6.00;3.35;;;;;;;;;;5033338;28;20060;-82
2022/04/16 10:37:38;;;;;;;5.97;3.60;;;;;;;;;;5049841;28;20049;-82
2022/04/16 10:40:15;;;;;;;6.28;3.72;;;;;;;;;;5032052;28;20093;-82
2022/04/16 10:42:48;;;;;;;6.78;3.97;;;;;;;;;;5047792;28;20081;-82
2022/04/16 10:45:21;;;;;;;5.22;3.35;;;;;;;;;;5052740;28;20045;-82
2022/04/16 10:47:51;;;;;;;5.43;3.35;;;;;;;;;;5052096;28;20049;-82
2022/04/16 10:50:20;;;;;;;4.88;3.45;;;;;;;;;;5053140;28;20052;-82
2022/04/16 10:52:56;;;;;;;6.85;3.95;;;;;;;;;;5052657;28;20063;-82
2022/04/16 10:55:30;;;;;;;5.72;3.50;;;;;;;;;;5042483;28;20084;-82
2022/04/16 10:57:59;;;;;;;4.43;3.05;;;;;;;;;;5031699;28;20049;-82
2022/04/16 11:00:36;;;;;;;5.68;3.30;;;;;;;;;;5038532;28;20136;-82
2022/04/16 11:03:11;;;;;;;6.90;3.45;;;;;;;;;;5052117;28;20049;-82
2022/04/16 11:05:41;;;;;;;4.53;3.20;;;;;;;;;;5052036;28;20080;-82
2022/04/16 11:08:14;;;;;;;4.93;2.83;;;;;;;;;;5052443;28;20076;-82
2022/04/16 11:10:43;;;;;;;4.93;3.22;;;;;;;;;;5044884;28;20045;-82
2022/04/16 11:13:13;;;;;;;4.30;2.92;;;;;;;;;;5032796;28;20095;-82
2022/04/16 11:15:42;;;;;;;4.53;2.90;;;;;;;;;;5032407;28;20041;-82
2022/04/16 11:18:14;;;;;;;6.20;3.60;;;;;;;;;;5031714;28;20452;-82
2022/04/16 11:20:43;;;;;;;5.97;3.05;;;;;;;;;;5032266;28;20080;-82
2022/04/16 11:23:12;;;;;;;4.65;2.80;;;;;;;;;;5050993;28;20531;-82
2022/04/16 11:34:20;;;;;;;5.75;2.53;;;;;;;;;;5032486;28;20052;-82
2022/04/16 11:36:51;;;;;;;5.25;2.72;;;;;;;;;;5045600;28;20081;-82
2022/04/16 11:39:22;;;;;;;5.20;3.10;;;;;;;;;;5049326;28;20045;-82
2022/04/16 11:41:51;;;;;;;4.68;2.90;;;;;;;;;;5038905;28;20508;-81
2022/04/16 11:44:30;;;;;;;6.10;3.03;;;;;;;;;;5052023;28;20053;-82
2022/04/16 11:46:58;;;;;;;5.45;3.25;;;;;;;;;;5036978;28;20060;-82
2022/04/16 11:49:26;;;;;;;5.45;3.10;;;;;;;;;;5031774;28;20469;-82
2022/04/16 11:51:55;;;;;;;4.53;3.15;;;;;;;;;;5051354;28;20112;-82
2022/04/16 11:54:31;;;;;;;6.85;3.80;;;;;;;;;;5051877;28;20045;-82
2022/04/16 11:56:59;;;;;;;6.43;3.75;;;;;;;;;;5051868;28;20136;-82
2022/04/16 11:59:28;;;;;;;8.52;4.32;;;;;;;;;;5050591;28;20113;-82
2022/04/16 12:02:15;;;;;;;6.50;3.85;;;;;;;;;;5051464;28;20094;-82
2022/04/16 12:04:44;;;;;;;9.30;4.55;;;;;;;;;;5031517;28;20064;-82
2022/04/16 12:07:13;;;;;;;12.27;5.82;;;;;;;;;;5031567;28;20054;-82
2022/04/16 12:09:46;;;;;;;12.85;5.80;;;;;;;;;;5030143;28;20561;-82
2022/04/16 12:12:16;;;;;;;12.75;5.75;;;;;;;;;;5031614;28;20124;-82
2022/04/16 12:14:51;;;;;;;12.93;6.25;;;;;;;;;;5031396;28;20091;-82
2022/04/16 12:17:24;;;;;;;13.82;6.53;;;;;;;;;;5045271;28;20057;-82
2022/04/16 12:20:02;;;;;;;16.38;6.50;;;;;;;;;;5044454;28;20053;-82
2022/04/16 12:22:30;;;;;;;12.02;6.38;;;;;;;;;;5031764;28;20469;-82
2022/04/16 12:25:09;;;;;;;14.50;5.93;;;;;;;;;;5032817;28;20140;-82
2022/04/16 12:27:44;;;;;;;10.50;5.25;;;;;;;;;;5051486;28;20059;-81
2022/04/16 12:30:14;;;;;;;12.02;5.80;;;;;;;;;;5050662;28;20091;-82
2022/04/16 12:32:42;;;;;;;12.65;5.40;;;;;;;;;;5050739;28;20044;-82
2022/04/16 12:35:10;;;;;;;9.02;5.22;;;;;;;;;;5050927;28;20080;-82
2022/04/16 12:37:38;;;;;;;11.50;5.68;;;;;;;;;;5048438;28;20132;-82
2022/04/16 12:40:07;;;;;;;9.60;5.05;;;;;;;;;;5050073;28;20068;-82
2022/04/16 12:42:37;;;;;;;9.40;5.28;;;;;;;;;;5050928;28;20048;-81
2022/04/16 12:45:06;;;;;;;9.20;4.88;;;;;;;;;;5050713;28;20091;-82
2022/04/16 12:47:35;;;;;;;10.30;5.65;;;;;;;;;;5051013;28;20139;-82
2022/04/16 12:50:03;;;;;;;8.93;5.32;;;;;;;;;;5050156;28;20476;-82
2022/04/16 12:52:31;;;;;;;7.65;4.38;;;;;;;;;;5050394;28;20084;-82
2022/04/16 12:55:00;;;;;;;9.52;5.43;;;;;;;;;;5035742;28;20478;-82
2022/04/16 12:57:29;;;;;;;7.53;4.13;;;;;;;;;;5030399;28;20489;-82
2022/04/16 12:59:59;;;;;;;9.32;4.13;;;;;;;;;;5030263;28;20481;-82
2022/04/16 13:02:27;;;;;;;7.32;4.60;;;;;;;;;;5030503;28;20417;-82
2022/04/16 13:04:56;;;;;;;9.00;5.00;;;;;;;;;;5030440;28;20515;-82
2022/04/16 13:07:24;;;;;;;8.70;4.55;;;;;;;;;;5030627;28;20095;-82
2022/04/16 13:09:53;;;;;;;8.90;4.47;;;;;;;;;;5030102;28;20057;-82
2022/04/16 13:12:21;;;;;;;9.48;5.07;;;;;;;;;;5032363;28;20100;-82
2022/04/16 13:14:49;;;;;;;8.68;4.95;;;;;;;;;;5030325;28;20588;-82
2022/04/16 13:17:19;;;;;;;10.55;4.82;;;;;;;;;;5043824;28;20137;-82
2022/04/16 13:19:47;;;;;;;9.35;4.38;;;;;;;;;;5051431;28;20052;-82
2022/04/16 13:22:16;;;;;;;7.03;3.85;;;;;;;;;;5054223;28;20088;-82
2022/04/16 13:24:44;;;;;;;8.05;4.50;;;;;;;;;;5054096;28;20448;-82
2022/04/16 13:27:12;;;;;;;8.02;4.03;;;;;;;;;;5053918;28;20061;-82
2022/04/16 13:29:41;;;;;;;6.75;4.10;;;;;;;;;;5054437;28;20048;-82
2022/04/16 13:32:09;;;;;;;7.18;3.92;;;;;;;;;;5055459;28;20489;-82
2022/04/16 13:34:40;;;;;;;5.60;3.05;;;;;;;;;;5054013;28;20135;-82
2022/04/16 13:37:08;;;;;;;8.07;3.80;;;;;;;;;;5053562;28;20057;-82
2022/04/16 13:42:22;;;;;;;6.53;3.60;;;;;;;;;;5042070;28;20081;-82
2022/04/16 13:44:51;;;;;;;5.55;3.45;;;;;;;;;;5034027;28;20467;-82
2022/04/16 13:47:20;;;;;;;6.18;3.35;;;;;;;;;;5034070;28;20426;-82
2022/04/16 13:49:50;;;;;;;6.25;3.25;;;;;;;;;;5033266;28;20080;-82
2022/04/16 13:52:18;;;;;;;6.95;3.60;;;;;;;;;;5033600;28;20132;-82
2022/04/16 13:54:47;;;;;;;6.15;3.00;;;;;;;;;;5033430;28;20077;-82
2022/04/16 13:57:15;;;;;;;5.68;3.05;;;;;;;;;;5033865;28;20065;-82
2022/04/16 13:59:44;;;;;;;4.88;3.05;;;;;;;;;;5033169;28;20572;-82
2022/04/16 14:02:12;;;;;;;5.32;2.88;;;;;;;;;;5042194;28;20073;-82
2022/04/16 14:07:28;;;;;;;5.97;3.38;;;;;;;;;;5033391;28;20091;-82
2022/04/16 14:09:56;;;;;;;5.60;3.72;;;;;;;;;;5032449;28;20505;-82
2022/04/16 14:12:25;;;;;;;6.68;3.50;;;;;;;;;;5033541;28;20046;-82
2022/04/16 14:14:53;;;;;;;6.57;3.25;;;;;;;;;;5033683;28;20129;-82
2022/04/16 14:17:21;;;;;;;5.93;3.70;;;;;;;;;;5047354;28;20140;-82
2022/04/16 14:19:50;;;;;;;4.75;2.80;;;;;;;;;;5039006;28;20091;-82
2022/04/16 14:22:18;;;;;;;5.07;3.30;;;;;;;;;;5033539;28;20041;-82
2022/04/16 14:24:48;;;;;;;4.97;2.80;;;;;;;;;;5033004;28;20049;-82
2022/04/16 14:27:16;;;;;;;6.82;3.15;;;;;;;;;;5033172;28;20056;-82
2022/04/16 14:29:45;;;;;;;5.95;2.80;;;;;;;;;;5032853;28;20053;-82
2022/04/16 14:32:14;;;;;;;5.53;3.10;;;;;;;;;;5032499;28;20136;-82
2022/04/16 14:34:42;;;;;;;4.72;3.05;;;;;;;;;;5033789;28;20125;-82
2022/04/16 14:37:10;;;;;;;5.85;3.25;;;;;;;;;;5033739;28;20049;-82
2022/04/16 14:39:39;;;;;;;4.57;3.10;;;;;;;;;;5033138;28;20087;-82
2022/04/16 14:42:10;;;;;;;5.20;3.22;;;;;;;;;;5042579;28;20127;-82
2022/04/16 14:44:41;;;;;;;4.80;3.13;;;;;;;;;;5053010;28;20095;-82
2022/04/16 14:47:09;;;;;;;4.85;2.95;;;;;;;;;;5053249;28;20094;-82
2022/04/16 14:49:37;;;;;;;5.15;2.70;;;;;;;;;;5052808;28;20049;-82
2022/04/16 14:52:06;;;;;;;5.43;2.88;;;;;;;;;;5053363;28;20119;-82
2022/04/16 14:54:34;;;;;;;3.75;2.47;;;;;;;;;;5033082;28;20057;-82
2022/04/16 14:57:24;;;;;;;4.03;3.03;;;;;;;;;;5033936;28;20049;-82
2022/04/16 14:59:53;;;;;;;3.95;2.53;;;;;;;;;;5032405;28;20481;-82
2022/04/16 15:02:21;;;;;;;4.22;2.60;;;;;;;;;;5033613;28;20089;-82
2022/04/16 15:04:51;;;;;;;3.92;2.67;;;;;;;;;;5032232;28;20096;-82
2022/04/16 15:07:20;;;;;;;5.18;3.03;;;;;;;;;;5033297;28;20108;-82
2022/04/16 15:09:48;;;;;;;5.90;3.15;;;;;;;;;;5036420;28;20041;-82
2022/04/16 15:12:16;;;;;;;5.05;2.65;;;;;;;;;;5033661;28;20095;-82
2022/04/16 15:14:46;;;;;;;4.60;2.45;;;;;;;;;;5038509;28;20105;-82
2022/04/16 15:17:14;;;;;;;4.22;2.65;;;;;;;;;;5053081;28;20051;-82
2022/04/16 15:19:42;;;;;;;3.92;2.63;;;;;;;;;;5058673;28;20045;-82
2022/04/16 15:22:11;;;;;;;3.67;2.28;;;;;;;;;;5059215;28;20069;-82
2022/04/16 15:24:39;;;;;;;3.97;2.55;;;;;;;;;;5058220;28;20136;-82